sensor_id;sensor_type;location;lat;lon;timestamp;P1;durP1;ratioP1;P2;durP2;ratioP2
15635;SDS011;7917;50.818;6.972;2023-11-22T00:01:47;11.60;;;9.25;;
15635;SDS011;7917;50.818;6.972;2023-11-22T00:04:15;15.27;;;10.30;;
15635;SDS011;7917;50.818;6.972;2023-11-22T00:06:42;11.90;;;9.00;;
15635;SDS011;7917;50.818;6.972;2023-11-22T00:09:10;12.32;;;9.45;;
15635;SDS011;7917;50.818;6.972;2023-11-22T00:11:37;12.23;;;9.63;;
15635;SDS011;7917;50.818;6.972;2023-11-22T00:14:04;14.23;;;10.30;;
15635;SDS011;7917;50.818;6.972;2023-11-22T00:16:31;11.10;;;9.60;;
15635;SDS011;7917;50.818;6.972;2023-11-22T00:18:58;13.05;;;9.60;;
15635;SDS011;7917;50.818;6.972;2023-11-22T00:21:25;14.15;;;10.18;;
15635;SDS011;7917;50.818;6.972;2023-11-22T00:23:52;14.02;;;10.52;;
15635;SDS011;7917;50.818;6.972;2023-11-22T00:26:18;15.10;;;11.45;;
15635;SDS011;7917;50.818;6.972;2023-11-22T00:28:45;12.98;;;10.75;;
15635;SDS011;7917;50.818;6.972;2023-11-22T00:31:11;16.08;;;11.05;;
15635;SDS011;7917;50.818;6.972;2023-11-22T00:33:40;14.63;;;11.00;;
15635;SDS011;7917;50.818;6.972;2023-11-22T00:36:06;17.00;;;12.13;;
15635;SDS011;7917;50.818;6.972;2023-11-22T00:38:35;14.60;;;10.90;;
15635;SDS011;7917;50.818;6.972;2023-11-22T00:41:02;13.63;;;10.73;;
15635;SDS011;7917;50.818;6.972;2023-11-22T00:43:29;13.93;;;11.20;;
15635;SDS011;7917;50.818;6.972;2023-11-22T00:45:56;14.52;;;11.30;;
15635;SDS011;7917;50.818;6.972;2023-11-22T00:48:22;16.25;;;11.63;;
15635;SDS011;7917;50.818;6.972;2023-11-22T00:50:49;17.38;;;12.50;;
15635;SDS011;7917;50.818;6.972;2023-11-22T00:53:16;16.35;;;11.63;;
15635;SDS011;7917;50.818;6.972;2023-11-22T00:55:44;17.20;;;12.65;;
15635;SDS011;7917;50.818;6.972;2023-11-22T00:58:10;15.30;;;12.10;;
15635;SDS011;7917;50.818;6.972;2023-11-22T01:00:37;16.13;;;12.02;;
15635;SDS011;7917;50.818;6.972;2023-11-22T01:03:03;15.25;;;11.68;;
15635;SDS011;7917;50.818;6.972;2023-11-22T01:05:30;16.88;;;12.73;;
15635;SDS011;7917;50.818;6.972;2023-11-22T01:07:56;17.40;;;12.35;;
15635;SDS011;7917;50.818;6.972;2023-11-22T01:10:23;17.52;;;12.95;;
15635;SDS011;7917;50.818;6.972;2023-11-22T01:12:50;16.30;;;11.65;;
15635;SDS011;7917;50.818;6.972;2023-11-22T01:15:17;18.50;;;13.27;;
15635;SDS011;7917;50.818;6.972;2023-11-22T01:17:43;18.65;;;12.30;;
15635;SDS011;7917;50.818;6.972;2023-11-22T01:20:10;19.10;;;13.25;;
15635;SDS011;7917;50.818;6.972;2023-11-22T01:22:39;20.00;;;12.98;;
15635;SDS011;7917;50.818;6.972;2023-11-22T01:25:05;17.58;;;11.95;;
15635;SDS011;7917;50.818;6.972;2023-11-22T01:27:32;16.65;;;12.00;;
15635;SDS011;7917;50.818;6.972;2023-11-22T01:29:59;19.23;;;13.18;;
15635;SDS011;7917;50.818;6.972;2023-11-22T01:32:29;16.20;;;11.48;;
15635;SDS011;7917;50.818;6.972;2023-11-22T01:34:55;18.52;;;11.95;;
15635;SDS011;7917;50.818;6.972;2023-11-22T01:37:23;19.10;;;13.05;;
15635;SDS011;7917;50.818;6.972;2023-11-22T01:39:49;17.00;;;12.40;;
15635;SDS011;7917;50.818;6.972;2023-11-22T01:42:16;16.48;;;12.32;;
15635;SDS011;7917;50.818;6.972;2023-11-22T01:44:42;17.67;;;12.63;;
15635;SDS011;7917;50.818;6.972;2023-11-22T01:47:09;20.30;;;13.10;;
15635;SDS011;7917;50.818;6.972;2023-11-22T01:49:36;15.90;;;12.32;;
15635;SDS011;7917;50.818;6.972;2023-11-22T01:52:02;19.13;;;12.48;;
15635;SDS011;7917;50.818;6.972;2023-11-22T01:54:30;18.77;;;12.55;;
15635;SDS011;7917;50.818;6.972;2023-11-22T01:56:58;16.52;;;11.65;;
15635;SDS011;7917;50.818;6.972;2023-11-22T01:59:25;16.17;;;12.00;;
15635;SDS011;7917;50.818;6.972;2023-11-22T02:01:53;20.35;;;13.15;;
15635;SDS011;7917;50.818;6.972;2023-11-22T02:04:20;17.90;;;12.52;;
15635;SDS011;7917;50.818;6.972;2023-11-22T02:06:46;18.35;;;11.73;;
15635;SDS011;7917;50.818;6.972;2023-11-22T02:09:13;17.45;;;12.25;;
15635;SDS011;7917;50.818;6.972;2023-11-22T02:11:40;17.58;;;11.80;;
15635;SDS011;7917;50.818;6.972;2023-11-22T02:14:10;15.35;;;11.38;;
15635;SDS011;7917;50.818;6.972;2023-11-22T02:16:37;18.48;;;12.50;;
15635;SDS011;7917;50.818;6.972;2023-11-22T02:19:04;18.42;;;12.27;;
15635;SDS011;7917;50.818;6.972;2023-11-22T02:21:33;16.42;;;11.48;;
15635;SDS011;7917;50.818;6.972;2023-11-22T02:24:00;15.75;;;11.30;;
15635;SDS011;7917;50.818;6.972;2023-11-22T02:26:27;18.30;;;11.90;;
15635;SDS011;7917;50.818;6.972;2023-11-22T02:28:56;18.25;;;12.75;;
15635;SDS011;7917;50.818;6.972;2023-11-22T02:31:24;16.67;;;12.50;;
15635;SDS011;7917;50.818;6.972;2023-11-22T02:33:52;18.15;;;13.20;;
15635;SDS011;7917;50.818;6.972;2023-11-22T02:36:19;18.02;;;13.18;;
15635;SDS011;7917;50.818;6.972;2023-11-22T02:38:45;18.45;;;13.07;;
15635;SDS011;7917;50.818;6.972;2023-11-22T02:41:12;17.58;;;13.02;;
15635;SDS011;7917;50.818;6.972;2023-11-22T02:43:39;18.05;;;12.02;;
15635;SDS011;7917;50.818;6.972;2023-11-22T02:46:06;19.27;;;12.93;;
15635;SDS011;7917;50.818;6.972;2023-11-22T02:48:34;17.50;;;12.30;;
15635;SDS011;7917;50.818;6.972;2023-11-22T02:51:01;18.65;;;12.73;;
15635;SDS011;7917;50.818;6.972;2023-11-22T02:53:28;17.58;;;12.20;;
15635;SDS011;7917;50.818;6.972;2023-11-22T02:55:55;19.05;;;13.07;;
15635;SDS011;7917;50.818;6.972;2023-11-22T02:58:26;16.08;;;12.38;;
15635;SDS011;7917;50.818;6.972;2023-11-22T03:00:52;19.20;;;12.02;;
15635;SDS011;7917;50.818;6.972;2023-11-22T03:03:20;16.13;;;12.50;;
15635;SDS011;7917;50.818;6.972;2023-11-22T03:05:46;17.15;;;12.80;;
15635;SDS011;7917;50.818;6.972;2023-11-22T03:08:12;16.25;;;12.07;;
15635;SDS011;7917;50.818;6.972;2023-11-22T03:10:41;16.80;;;11.23;;
15635;SDS011;7917;50.818;6.972;2023-11-22T03:13:07;16.88;;;11.40;;
15635;SDS011;7917;50.818;6.972;2023-11-22T03:15:34;14.10;;;11.15;;
15635;SDS011;7917;50.818;6.972;2023-11-22T03:18:02;21.15;;;12.32;;
15635;SDS011;7917;50.818;6.972;2023-11-22T03:20:29;19.85;;;12.52;;
15635;SDS011;7917;50.818;6.972;2023-11-22T03:22:57;17.27;;;12.63;;
15635;SDS011;7917;50.818;6.972;2023-11-22T03:25:25;17.88;;;12.93;;
15635;SDS011;7917;50.818;6.972;2023-11-22T03:27:51;18.73;;;13.23;;
15635;SDS011;7917;50.818;6.972;2023-11-22T03:30:18;16.75;;;11.77;;
15635;SDS011;7917;50.818;6.972;2023-11-22T03:32:45;15.85;;;11.90;;
15635;SDS011;7917;50.818;6.972;2023-11-22T03:35:12;20.17;;;13.15;;
15635;SDS011;7917;50.818;6.972;2023-11-22T03:37:38;15.93;;;12.73;;
15635;SDS011;7917;50.818;6.972;2023-11-22T03:40:05;18.13;;;12.63;;
15635;SDS011;7917;50.818;6.972;2023-11-22T03:42:32;18.00;;;11.95;;
15635;SDS011;7917;50.818;6.972;2023-11-22T03:45:01;16.10;;;12.15;;
15635;SDS011;7917;50.818;6.972;2023-11-22T03:47:28;16.25;;;11.75;;
15635;SDS011;7917;50.818;6.972;2023-11-22T03:49:55;16.55;;;12.00;;
15635;SDS011;7917;50.818;6.972;2023-11-22T03:52:21;15.50;;;11.13;;
15635;SDS011;7917;50.818;6.972;2023-11-22T03:54:48;15.50;;;11.20;;
15635;SDS011;7917;50.818;6.972;2023-11-22T03:57:14;13.75;;;10.40;;
15635;SDS011;7917;50.818;6.972;2023-11-22T03:59:40;14.05;;;10.90;;
15635;SDS011;7917;50.818;6.972;2023-11-22T04:05:31;14.57;;;11.10;;
15635;SDS011;7917;50.818;6.972;2023-11-22T04:07:57;15.35;;;11.23;;
15635;SDS011;7917;50.818;6.972;2023-11-22T04:10:24;15.00;;;11.15;;
15635;SDS011;7917;50.818;6.972;2023-11-22T04:12:50;13.25;;;10.75;;
15635;SDS011;7917;50.818;6.972;2023-11-22T04:15:17;14.20;;;11.15;;
15635;SDS011;7917;50.818;6.972;2023-11-22T04:17:44;14.40;;;10.73;;
15635;SDS011;7917;50.818;6.972;2023-11-22T04:20:12;14.93;;;10.20;;
15635;SDS011;7917;50.818;6.972;2023-11-22T04:22:40;18.70;;;12.43;;
15635;SDS011;7917;50.818;6.972;2023-11-22T04:25:07;17.52;;;11.63;;
15635;SDS011;7917;50.818;6.972;2023-11-22T04:27:34;16.42;;;11.80;;
15635;SDS011;7917;50.818;6.972;2023-11-22T04:30:00;15.32;;;11.05;;
15635;SDS011;7917;50.818;6.972;2023-11-22T04:32:27;16.88;;;10.85;;
15635;SDS011;7917;50.818;6.972;2023-11-22T04:34:54;15.77;;;11.90;;
15635;SDS011;7917;50.818;6.972;2023-11-22T04:37:20;19.52;;;13.18;;
15635;SDS011;7917;50.818;6.972;2023-11-22T04:39:51;18.27;;;12.73;;
15635;SDS011;7917;50.818;6.972;2023-11-22T04:42:17;18.70;;;12.27;;
15635;SDS011;7917;50.818;6.972;2023-11-22T04:44:44;14.98;;;11.73;;
15635;SDS011;7917;50.818;6.972;2023-11-22T04:47:11;18.88;;;12.70;;
15635;SDS011;7917;50.818;6.972;2023-11-22T04:49:38;18.77;;;13.20;;
15635;SDS011;7917;50.818;6.972;2023-11-22T04:52:04;17.00;;;13.18;;
15635;SDS011;7917;50.818;6.972;2023-11-22T04:54:31;20.38;;;13.43;;
15635;SDS011;7917;50.818;6.972;2023-11-22T04:56:59;18.08;;;12.63;;
15635;SDS011;7917;50.818;6.972;2023-11-22T04:59:25;20.35;;;13.13;;
15635;SDS011;7917;50.818;6.972;2023-11-22T05:01:52;18.80;;;13.48;;
15635;SDS011;7917;50.818;6.972;2023-11-22T05:04:19;18.67;;;13.27;;
15635;SDS011;7917;50.818;6.972;2023-11-22T05:06:46;23.35;;;14.40;;
15635;SDS011;7917;50.818;6.972;2023-11-22T05:09:12;21.23;;;13.02;;
15635;SDS011;7917;50.818;6.972;2023-11-22T05:11:39;20.23;;;12.98;;
15635;SDS011;7917;50.818;6.972;2023-11-22T05:14:07;19.50;;;13.45;;
15635;SDS011;7917;50.818;6.972;2023-11-22T05:16:33;22.65;;;13.02;;
15635;SDS011;7917;50.818;6.972;2023-11-22T05:19:00;20.35;;;14.30;;
15635;SDS011;7917;50.818;6.972;2023-11-22T05:21:27;21.95;;;14.65;;
15635;SDS011;7917;50.818;6.972;2023-11-22T05:23:54;24.60;;;14.40;;
15635;SDS011;7917;50.818;6.972;2023-11-22T05:26:20;23.63;;;15.07;;
15635;SDS011;7917;50.818;6.972;2023-11-22T05:28:47;24.63;;;15.23;;
15635;SDS011;7917;50.818;6.972;2023-11-22T05:31:14;21.30;;;14.75;;
15635;SDS011;7917;50.818;6.972;2023-11-22T05:33:41;22.08;;;14.52;;
15635;SDS011;7917;50.818;6.972;2023-11-22T05:36:08;26.58;;;16.77;;
15635;SDS011;7917;50.818;6.972;2023-11-22T05:38:35;25.17;;;15.75;;
15635;SDS011;7917;50.818;6.972;2023-11-22T05:41:03;21.85;;;14.63;;
15635;SDS011;7917;50.818;6.972;2023-11-22T05:43:31;23.10;;;15.55;;
15635;SDS011;7917;50.818;6.972;2023-11-22T05:46:01;24.40;;;15.40;;
15635;SDS011;7917;50.818;6.972;2023-11-22T05:48:29;23.52;;;15.57;;
15635;SDS011;7917;50.818;6.972;2023-11-22T05:50:55;24.80;;;16.00;;
15635;SDS011;7917;50.818;6.972;2023-11-22T05:53:22;25.83;;;16.42;;
15635;SDS011;7917;50.818;6.972;2023-11-22T05:55:49;25.75;;;15.18;;
15635;SDS011;7917;50.818;6.972;2023-11-22T05:58:15;21.10;;;14.38;;
15635;SDS011;7917;50.818;6.972;2023-11-22T06:00:42;19.80;;;13.98;;
15635;SDS011;7917;50.818;6.972;2023-11-22T06:03:09;22.90;;;13.95;;
15635;SDS011;7917;50.818;6.972;2023-11-22T06:05:37;20.52;;;13.82;;
15635;SDS011;7917;50.818;6.972;2023-11-22T06:08:04;22.92;;;13.88;;
15635;SDS011;7917;50.818;6.972;2023-11-22T06:10:31;23.67;;;14.85;;
15635;SDS011;7917;50.818;6.972;2023-11-22T06:12:59;22.17;;;14.73;;
15635;SDS011;7917;50.818;6.972;2023-11-22T06:15:29;22.77;;;14.23;;
15635;SDS011;7917;50.818;6.972;2023-11-22T06:17:55;25.45;;;12.85;;
15635;SDS011;7917;50.818;6.972;2023-11-22T06:20:23;20.65;;;13.45;;
15635;SDS011;7917;50.818;6.972;2023-11-22T06:22:52;21.05;;;13.98;;
15635;SDS011;7917;50.818;6.972;2023-11-22T06:25:18;22.98;;;13.23;;
15635;SDS011;7917;50.818;6.972;2023-11-22T06:27:45;19.90;;;12.52;;
15635;SDS011;7917;50.818;6.972;2023-11-22T06:30:11;21.05;;;12.45;;
15635;SDS011;7917;50.818;6.972;2023-11-22T06:32:40;18.48;;;12.45;;
15635;SDS011;7917;50.818;6.972;2023-11-22T06:35:08;17.02;;;11.68;;
15635;SDS011;7917;50.818;6.972;2023-11-22T06:37:35;17.35;;;12.35;;
15635;SDS011;7917;50.818;6.972;2023-11-22T06:40:02;22.20;;;10.48;;
15635;SDS011;7917;50.818;6.972;2023-11-22T06:42:30;17.48;;;11.35;;
15635;SDS011;7917;50.818;6.972;2023-11-22T06:44:56;19.08;;;11.48;;
15635;SDS011;7917;50.818;6.972;2023-11-22T06:47:25;17.38;;;11.77;;
15635;SDS011;7917;50.818;6.972;2023-11-22T06:49:52;16.40;;;11.25;;
15635;SDS011;7917;50.818;6.972;2023-11-22T06:52:19;18.20;;;11.57;;
15635;SDS011;7917;50.818;6.972;2023-11-22T06:54:46;15.60;;;10.75;;
15635;SDS011;7917;50.818;6.972;2023-11-22T06:57:13;18.73;;;11.07;;
15635;SDS011;7917;50.818;6.972;2023-11-22T06:59:39;16.85;;;11.52;;
15635;SDS011;7917;50.818;6.972;2023-11-22T07:02:06;16.33;;;11.85;;
15635;SDS011;7917;50.818;6.972;2023-11-22T07:04:33;17.38;;;11.13;;
15635;SDS011;7917;50.818;6.972;2023-11-22T07:07:00;20.27;;;11.38;;
15635;SDS011;7917;50.818;6.972;2023-11-22T07:09:29;16.35;;;10.80;;
15635;SDS011;7917;50.818;6.972;2023-11-22T07:11:58;16.13;;;10.57;;
15635;SDS011;7917;50.818;6.972;2023-11-22T07:14:25;15.82;;;9.95;;
15635;SDS011;7917;50.818;6.972;2023-11-22T07:16:52;17.35;;;11.05;;
15635;SDS011;7917;50.818;6.972;2023-11-22T07:19:18;17.30;;;10.65;;
15635;SDS011;7917;50.818;6.972;2023-11-22T07:21:45;18.88;;;11.23;;
15635;SDS011;7917;50.818;6.972;2023-11-22T07:24:13;18.33;;;11.35;;
15635;SDS011;7917;50.818;6.972;2023-11-22T07:26:41;17.73;;;11.15;;
15635;SDS011;7917;50.818;6.972;2023-11-22T07:29:08;17.77;;;11.32;;
15635;SDS011;7917;50.818;6.972;2023-11-22T07:31:35;17.13;;;10.70;;
15635;SDS011;7917;50.818;6.972;2023-11-22T07:34:02;18.50;;;10.93;;
15635;SDS011;7917;50.818;6.972;2023-11-22T07:36:29;16.88;;;11.77;;
15635;SDS011;7917;50.818;6.972;2023-11-22T07:38:56;16.30;;;10.93;;
15635;SDS011;7917;50.818;6.972;2023-11-22T07:41:23;17.70;;;11.68;;
15635;SDS011;7917;50.818;6.972;2023-11-22T07:43:50;18.50;;;11.70;;
15635;SDS011;7917;50.818;6.972;2023-11-22T07:46:17;18.05;;;12.13;;
15635;SDS011;7917;50.818;6.972;2023-11-22T07:48:45;22.83;;;13.90;;
15635;SDS011;7917;50.818;6.972;2023-11-22T07:51:13;21.83;;;13.40;;
15635;SDS011;7917;50.818;6.972;2023-11-22T07:53:41;22.45;;;13.07;;
15635;SDS011;7917;50.818;6.972;2023-11-22T07:56:08;21.90;;;13.05;;
15635;SDS011;7917;50.818;6.972;2023-11-22T07:58:36;20.70;;;12.50;;
15635;SDS011;7917;50.818;6.972;2023-11-22T08:01:03;19.08;;;12.80;;
15635;SDS011;7917;50.818;6.972;2023-11-22T08:03:31;21.80;;;13.15;;
15635;SDS011;7917;50.818;6.972;2023-11-22T08:06:00;22.02;;;13.77;;
15635;SDS011;7917;50.818;6.972;2023-11-22T08:08:30;20.42;;;12.85;;
15635;SDS011;7917;50.818;6.972;2023-11-22T08:11:00;24.45;;;14.18;;
15635;SDS011;7917;50.818;6.972;2023-11-22T08:13:27;21.85;;;12.88;;
15635;SDS011;7917;50.818;6.972;2023-11-22T08:15:56;21.73;;;12.68;;
15635;SDS011;7917;50.818;6.972;2023-11-22T08:18:23;19.33;;;11.75;;
15635;SDS011;7917;50.818;6.972;2023-11-22T08:20:49;19.63;;;11.88;;
15635;SDS011;7917;50.818;6.972;2023-11-22T08:23:17;19.27;;;12.13;;
15635;SDS011;7917;50.818;6.972;2023-11-22T08:25:43;19.90;;;12.80;;
15635;SDS011;7917;50.818;6.972;2023-11-22T08:28:10;23.58;;;13.30;;
15635;SDS011;7917;50.818;6.972;2023-11-22T08:30:38;25.95;;;13.23;;
15635;SDS011;7917;50.818;6.972;2023-11-22T08:33:06;17.60;;;12.80;;
15635;SDS011;7917;50.818;6.972;2023-11-22T08:35:33;20.17;;;13.25;;
15635;SDS011;7917;50.818;6.972;2023-11-22T08:38:00;17.92;;;11.68;;
15635;SDS011;7917;50.818;6.972;2023-11-22T08:40:29;20.60;;;12.75;;
15635;SDS011;7917;50.818;6.972;2023-11-22T08:42:55;17.20;;;11.98;;
15635;SDS011;7917;50.818;6.972;2023-11-22T08:45:23;20.52;;;12.85;;
15635;SDS011;7917;50.818;6.972;2023-11-22T08:47:50;14.48;;;9.90;;
15635;SDS011;7917;50.818;6.972;2023-11-22T08:50:16;14.48;;;10.15;;
15635;SDS011;7917;50.818;6.972;2023-11-22T08:52:44;16.48;;;10.18;;
15635;SDS011;7917;50.818;6.972;2023-11-22T08:55:12;14.07;;;9.80;;
15635;SDS011;7917;50.818;6.972;2023-11-22T08:57:40;13.45;;;9.23;;
15635;SDS011;7917;50.818;6.972;2023-11-22T09:00:07;16.15;;;10.40;;
15635;SDS011;7917;50.818;6.972;2023-11-22T09:02:36;13.45;;;9.70;;
15635;SDS011;7917;50.818;6.972;2023-11-22T09:05:04;14.93;;;9.75;;
15635;SDS011;7917;50.818;6.972;2023-11-22T09:07:33;15.75;;;9.60;;
15635;SDS011;7917;50.818;6.972;2023-11-22T09:10:01;15.15;;;9.57;;
15635;SDS011;7917;50.818;6.972;2023-11-22T09:12:34;11.60;;;9.23;;
15635;SDS011;7917;50.818;6.972;2023-11-22T09:15:03;13.52;;;8.93;;
15635;SDS011;7917;50.818;6.972;2023-11-22T09:17:34;15.52;;;8.65;;
15635;SDS011;7917;50.818;6.972;2023-11-22T09:20:00;12.32;;;8.52;;
15635;SDS011;7917;50.818;6.972;2023-11-22T09:22:28;6.60;;;2.92;;
15635;SDS011;7917;50.818;6.972;2023-11-22T09:24:55;8.48;;;2.60;;
15635;SDS011;7917;50.818;6.972;2023-11-22T09:27:22;3.80;;;2.20;;
15635;SDS011;7917;50.818;6.972;2023-11-22T09:29:50;3.08;;;2.20;;
15635;SDS011;7917;50.818;6.972;2023-11-22T09:32:18;3.20;;;2.10;;
15635;SDS011;7917;50.818;6.972;2023-11-22T09:34:45;5.90;;;2.30;;
15635;SDS011;7917;50.818;6.972;2023-11-22T09:37:12;4.25;;;2.65;;
15635;SDS011;7917;50.818;6.972;2023-11-22T09:39:40;2.88;;;2.38;;
15635;SDS011;7917;50.818;6.972;2023-11-22T09:42:07;5.35;;;2.60;;
15635;SDS011;7917;50.818;6.972;2023-11-22T09:44:34;7.65;;;3.25;;
15635;SDS011;7917;50.818;6.972;2023-11-22T09:47:00;3.80;;;3.33;;
15635;SDS011;7917;50.818;6.972;2023-11-22T09:49:30;5.00;;;3.33;;
15635;SDS011;7917;50.818;6.972;2023-11-22T09:52:00;5.40;;;3.28;;
15635;SDS011;7917;50.818;6.972;2023-11-22T09:54:29;12.27;;;3.72;;
15635;SDS011;7917;50.818;6.972;2023-11-22T09:56:59;6.03;;;2.90;;
15635;SDS011;7917;50.818;6.972;2023-11-22T09:59:28;3.75;;;2.70;;
15635;SDS011;7917;50.818;6.972;2023-11-22T10:01:58;3.83;;;2.97;;
15635;SDS011;7917;50.818;6.972;2023-11-22T10:04:25;4.30;;;3.53;;
15635;SDS011;7917;50.818;6.972;2023-11-22T10:06:55;6.55;;;4.18;;
15635;SDS011;7917;50.818;6.972;2023-11-22T10:09:24;6.38;;;3.88;;
15635;SDS011;7917;50.818;6.972;2023-11-22T10:11:52;3.90;;;3.05;;
15635;SDS011;7917;50.818;6.972;2023-11-22T10:14:24;4.05;;;3.17;;
15635;SDS011;7917;50.818;6.972;2023-11-22T10:16:57;7.05;;;3.38;;
15635;SDS011;7917;50.818;6.972;2023-11-22T10:19:25;4.32;;;3.13;;
15635;SDS011;7917;50.818;6.972;2023-11-22T10:22:02;3.42;;;2.97;;
15635;SDS011;7917;50.818;6.972;2023-11-22T10:24:30;5.38;;;3.03;;
15635;SDS011;7917;50.818;6.972;2023-11-22T10:26:58;5.88;;;2.85;;
15635;SDS011;7917;50.818;6.972;2023-11-22T10:29:25;3.42;;;2.60;;
15635;SDS011;7917;50.818;6.972;2023-11-22T10:31:52;5.88;;;2.97;;
15635;SDS011;7917;50.818;6.972;2023-11-22T10:34:20;6.50;;;3.00;;
15635;SDS011;7917;50.818;6.972;2023-11-22T10:36:47;3.95;;;2.95;;
15635;SDS011;7917;50.818;6.972;2023-11-22T10:39:19;3.40;;;2.75;;
15635;SDS011;7917;50.818;6.972;2023-11-22T10:41:46;3.50;;;2.70;;
15635;SDS011;7917;50.818;6.972;2023-11-22T10:44:13;4.40;;;3.28;;
15635;SDS011;7917;50.818;6.972;2023-11-22T10:46:42;3.45;;;2.35;;
15635;SDS011;7917;50.818;6.972;2023-11-22T10:49:11;3.00;;;2.65;;
15635;SDS011;7917;50.818;6.972;2023-11-22T10:51:39;3.72;;;3.03;;
15635;SDS011;7917;50.818;6.972;2023-11-22T10:54:07;3.50;;;2.42;;
15635;SDS011;7917;50.818;6.972;2023-11-22T10:56:36;3.58;;;2.40;;
15635;SDS011;7917;50.818;6.972;2023-11-22T10:59:10;3.55;;;2.63;;
15635;SDS011;7917;50.818;6.972;2023-11-22T11:01:39;3.83;;;2.45;;
15635;SDS011;7917;50.818;6.972;2023-11-22T11:04:14;3.10;;;2.40;;
15635;SDS011;7917;50.818;6.972;2023-11-22T11:06:45;5.88;;;2.80;;
15635;SDS011;7917;50.818;6.972;2023-11-22T11:09:17;4.07;;;2.65;;
15635;SDS011;7917;50.818;6.972;2023-11-22T11:11:47;4.90;;;2.70;;
15635;SDS011;7917;50.818;6.972;2023-11-22T11:14:14;3.83;;;2.42;;
15635;SDS011;7917;50.818;6.972;2023-11-22T11:16:43;3.35;;;2.05;;
15635;SDS011;7917;50.818;6.972;2023-11-22T11:19:14;4.82;;;1.98;;
15635;SDS011;7917;50.818;6.972;2023-11-22T11:21:42;2.72;;;2.47;;
15635;SDS011;7917;50.818;6.972;2023-11-22T11:24:09;3.15;;;2.40;;
15635;SDS011;7917;50.818;6.972;2023-11-22T11:26:37;2.47;;;2.20;;
15635;SDS011;7917;50.818;6.972;2023-11-22T11:29:05;4.30;;;2.22;;
15635;SDS011;7917;50.818;6.972;2023-11-22T11:31:33;2.72;;;1.83;;
15635;SDS011;7917;50.818;6.972;2023-11-22T11:34:06;2.42;;;2.15;;
15635;SDS011;7917;50.818;6.972;2023-11-22T11:36:36;3.85;;;1.90;;
15635;SDS011;7917;50.818;6.972;2023-11-22T11:39:04;1.95;;;1.70;;
15635;SDS011;7917;50.818;6.972;2023-11-22T11:41:34;2.65;;;1.83;;
15635;SDS011;7917;50.818;6.972;2023-11-22T11:44:03;5.38;;;2.40;;
15635;SDS011;7917;50.818;6.972;2023-11-22T11:46:33;2.72;;;2.38;;
15635;SDS011;7917;50.818;6.972;2023-11-22T11:49:00;2.95;;;2.00;;
15635;SDS011;7917;50.818;6.972;2023-11-22T11:51:33;2.25;;;2.05;;
15635;SDS011;7917;50.818;6.972;2023-11-22T11:54:00;2.08;;;1.88;;
15635;SDS011;7917;50.818;6.972;2023-11-22T11:56:27;2.45;;;2.13;;
15635;SDS011;7917;50.818;6.972;2023-11-22T11:58:55;3.25;;;2.25;;
15635;SDS011;7917;50.818;6.972;2023-11-22T12:01:27;3.13;;;2.00;;
15635;SDS011;7917;50.818;6.972;2023-11-22T12:03:56;2.30;;;1.90;;
15635;SDS011;7917;50.818;6.972;2023-11-22T12:06:22;2.35;;;2.08;;
15635;SDS011;7917;50.818;6.972;2023-11-22T12:08:49;3.85;;;1.90;;
15635;SDS011;7917;50.818;6.972;2023-11-22T12:11:16;2.67;;;2.17;;
15635;SDS011;7917;50.818;6.972;2023-11-22T12:13:43;2.60;;;1.85;;
15635;SDS011;7917;50.818;6.972;2023-11-22T12:16:13;4.28;;;2.15;;
15635;SDS011;7917;50.818;6.972;2023-11-22T12:18:42;3.22;;;1.92;;
15635;SDS011;7917;50.818;6.972;2023-11-22T12:21:11;2.60;;;1.90;;
15635;SDS011;7917;50.818;6.972;2023-11-22T12:23:39;3.03;;;2.20;;
15635;SDS011;7917;50.818;6.972;2023-11-22T12:26:09;3.13;;;2.38;;
15635;SDS011;7917;50.818;6.972;2023-11-22T12:28:38;2.45;;;2.25;;
15635;SDS011;7917;50.818;6.972;2023-11-22T12:31:09;2.67;;;1.90;;
15635;SDS011;7917;50.818;6.972;2023-11-22T12:33:37;2.58;;;2.15;;
15635;SDS011;7917;50.818;6.972;2023-11-22T12:36:07;3.45;;;2.10;;
15635;SDS011;7917;50.818;6.972;2023-11-22T12:38:35;2.28;;;2.08;;
15635;SDS011;7917;50.818;6.972;2023-11-22T12:41:05;2.40;;;2.20;;
15635;SDS011;7917;50.818;6.972;2023-11-22T12:43:32;4.07;;;2.60;;
15635;SDS011;7917;50.818;6.972;2023-11-22T12:46:00;3.50;;;2.50;;
15635;SDS011;7917;50.818;6.972;2023-11-22T12:48:27;4.43;;;3.28;;
15635;SDS011;7917;50.818;6.972;2023-11-22T12:50:55;4.30;;;2.65;;
15635;SDS011;7917;50.818;6.972;2023-11-22T12:53:23;3.63;;;2.67;;
15635;SDS011;7917;50.818;6.972;2023-11-22T12:55:52;5.18;;;2.70;;
15635;SDS011;7917;50.818;6.972;2023-11-22T12:58:20;5.18;;;2.30;;
15635;SDS011;7917;50.818;6.972;2023-11-22T13:00:48;3.03;;;2.50;;
15635;SDS011;7917;50.818;6.972;2023-11-22T13:03:16;3.40;;;2.20;;
15635;SDS011;7917;50.818;6.972;2023-11-22T13:05:43;2.72;;;2.08;;
15635;SDS011;7917;50.818;6.972;2023-11-22T13:08:11;6.82;;;2.30;;
15635;SDS011;7917;50.818;6.972;2023-11-22T13:10:39;3.75;;;2.10;;
15635;SDS011;7917;50.818;6.972;2023-11-22T13:13:07;9.20;;;4.28;;
15635;SDS011;7917;50.818;6.972;2023-11-22T13:15:34;6.95;;;4.65;;
15635;SDS011;7917;50.818;6.972;2023-11-22T13:18:01;3.60;;;3.05;;
15635;SDS011;7917;50.818;6.972;2023-11-22T13:20:28;3.65;;;2.78;;
15635;SDS011;7917;50.818;6.972;2023-11-22T13:22:55;2.70;;;2.47;;
15635;SDS011;7917;50.818;6.972;2023-11-22T13:25:23;3.92;;;2.75;;
15635;SDS011;7917;50.818;6.972;2023-11-22T13:27:51;3.65;;;2.70;;
15635;SDS011;7917;50.818;6.972;2023-11-22T13:30:19;5.97;;;2.50;;
15635;SDS011;7917;50.818;6.972;2023-11-22T13:32:48;3.97;;;2.58;;
15635;SDS011;7917;50.818;6.972;2023-11-22T13:35:15;4.18;;;3.35;;
15635;SDS011;7917;50.818;6.972;2023-11-22T13:37:43;4.53;;;2.60;;
15635;SDS011;7917;50.818;6.972;2023-11-22T13:40:10;4.22;;;2.90;;
15635;SDS011;7917;50.818;6.972;2023-11-22T13:42:40;4.50;;;3.30;;
15635;SDS011;7917;50.818;6.972;2023-11-22T13:45:08;5.47;;;3.20;;
15635;SDS011;7917;50.818;6.972;2023-11-22T13:47:36;4.30;;;3.33;;
15635;SDS011;7917;50.818;6.972;2023-11-22T13:50:03;5.45;;;3.42;;
15635;SDS011;7917;50.818;6.972;2023-11-22T13:52:31;3.75;;;2.80;;
15635;SDS011;7917;50.818;6.972;2023-11-22T13:54:59;4.10;;;2.65;;
15635;SDS011;7917;50.818;6.972;2023-11-22T13:57:27;3.30;;;2.40;;
15635;SDS011;7917;50.818;6.972;2023-11-22T13:59:56;2.58;;;2.35;;
15635;SDS011;7917;50.818;6.972;2023-11-22T14:02:23;3.78;;;2.60;;
15635;SDS011;7917;50.818;6.972;2023-11-22T14:04:52;4.90;;;2.72;;
15635;SDS011;7917;50.818;6.972;2023-11-22T14:07:18;4.45;;;3.20;;
15635;SDS011;7917;50.818;6.972;2023-11-22T14:09:45;3.58;;;2.85;;
15635;SDS011;7917;50.818;6.972;2023-11-22T14:12:13;4.75;;;3.42;;
15635;SDS011;7917;50.818;6.972;2023-11-22T14:14:43;3.55;;;3.20;;
15635;SDS011;7917;50.818;6.972;2023-11-22T14:17:10;4.32;;;3.55;;
15635;SDS011;7917;50.818;6.972;2023-11-22T14:19:40;5.57;;;3.78;;
15635;SDS011;7917;50.818;6.972;2023-11-22T14:22:08;4.25;;;3.72;;
15635;SDS011;7917;50.818;6.972;2023-11-22T14:24:35;5.95;;;4.45;;
15635;SDS011;7917;50.818;6.972;2023-11-22T14:27:04;7.63;;;4.82;;
15635;SDS011;7917;50.818;6.972;2023-11-22T14:29:31;8.27;;;5.70;;
15635;SDS011;7917;50.818;6.972;2023-11-22T14:31:58;8.48;;;5.60;;
15635;SDS011;7917;50.818;6.972;2023-11-22T14:34:25;7.72;;;5.95;;
15635;SDS011;7917;50.818;6.972;2023-11-22T14:36:52;8.02;;;6.20;;
15635;SDS011;7917;50.818;6.972;2023-11-22T14:39:20;9.98;;;6.53;;
15635;SDS011;7917;50.818;6.972;2023-11-22T14:41:48;9.02;;;5.95;;
15635;SDS011;7917;50.818;6.972;2023-11-22T14:44:16;10.20;;;6.82;;
15635;SDS011;7917;50.818;6.972;2023-11-22T14:46:43;10.75;;;6.47;;
15635;SDS011;7917;50.818;6.972;2023-11-22T14:49:11;9.45;;;6.88;;
15635;SDS011;7917;50.818;6.972;2023-11-22T14:51:39;14.10;;;6.88;;